createdAt,value
2019-05-19T00:00:59.494Z,2.87
2019-05-19T00:03:29.406Z,2.83
2019-05-19T00:05:59.319Z,2.10
2019-05-19T00:08:29.333Z,2.43
2019-05-19T00:10:59.243Z,2.37
2019-05-19T00:13:29.256Z,2.43
2019-05-19T00:15:59.171Z,1.70
2019-05-19T00:18:29.085Z,2.23
2019-05-19T00:20:59.118Z,3.33
2019-05-19T00:23:29.104Z,1.83
2019-05-19T00:25:59.313Z,2.67
2019-05-19T00:28:29.225Z,3.43
2019-05-19T00:30:59.536Z,2.60
2019-05-19T00:33:29.740Z,2.50
2019-05-19T00:35:59.654Z,3.30
2019-05-19T00:38:29.582Z,1.80
2019-05-19T00:40:59.481Z,2.17
2019-05-19T00:43:29.397Z,2.20
2019-05-19T00:45:59.308Z,2.17
2019-05-19T00:49:44.523Z,2.53
2019-05-19T00:53:11.752Z,4.53
2019-05-19T00:56:19.164Z,2.53
2019-05-19T00:59:10.780Z,4.17
2019-05-19T01:01:59.247Z,2.80
2019-05-19T01:04:44.592Z,2.10
2019-05-19T01:07:23.658Z,3.47
2019-05-19T01:09:54.151Z,3.10
2019-05-19T01:12:24.064Z,2.17
2019-05-19T01:16:24.847Z,2.00
2019-05-19T01:20:22.804Z,3.33
2019-05-19T01:46:53.462Z,2.50
2019-05-19T01:49:23.378Z,2.83
2019-05-19T01:51:53.293Z,2.83
2019-05-19T01:54:23.300Z,3.33
2019-05-19T01:56:53.419Z,4.63
2019-05-19T01:59:23.323Z,3.10
2019-05-19T02:01:53.635Z,4.93
2019-05-19T02:04:23.782Z,3.20
2019-05-19T02:06:53.754Z,3.30
2019-05-19T02:09:25.148Z,2.80
2019-05-19T02:11:54.961Z,3.13
2019-05-19T02:14:24.871Z,3.30
2019-05-19T02:16:54.781Z,3.20
2019-05-19T02:19:24.696Z,2.87
2019-05-19T02:21:54.612Z,2.90
2019-05-19T02:24:24.572Z,2.50
2019-05-19T02:26:54.632Z,2.73
2019-05-19T02:29:24.546Z,3.83
2019-05-19T02:31:54.461Z,3.50
2019-05-19T02:34:24.378Z,2.00
2019-05-19T02:36:54.391Z,1.80
2019-05-19T02:39:24.425Z,2.73
2019-05-19T02:41:56.437Z,1.93
2019-05-19T02:44:29.448Z,1.90
2019-05-19T02:47:02.887Z,5.13
2019-05-19T02:49:35.292Z,2.00
2019-05-19T02:52:06.056Z,3.27
2019-05-19T02:54:37.050Z,1.97
2019-05-19T02:57:08.092Z,1.87
2019-05-19T02:59:38.641Z,2.47
2019-05-19T03:02:15.642Z,2.97
2019-05-19T03:04:45.650Z,1.70
2019-05-19T03:07:15.665Z,2.23
2019-05-19T03:09:45.577Z,2.37
2019-05-19T03:12:15.490Z,1.63
2019-05-19T03:14:45.602Z,2.17
2019-05-19T03:17:15.516Z,1.70
2019-05-19T03:19:45.526Z,1.87
2019-05-19T03:22:15.865Z,2.33
2019-05-19T03:24:45.746Z,2.03
2019-05-19T03:27:15.970Z,2.53
2019-05-19T03:29:47.538Z,1.90
2019-05-19T03:32:35.146Z,1.60
2019-05-19T03:35:05.377Z,2.23
2019-05-19T03:37:35.564Z,1.93
2019-05-19T03:40:08.229Z,2.10
2019-05-19T03:42:38.242Z,1.67
2019-05-19T03:45:08.356Z,2.47
2019-05-19T03:47:38.269Z,1.70
2019-05-19T03:50:08.776Z,2.00
2019-05-19T03:52:38.779Z,1.70
2019-05-19T03:55:09.487Z,2.00
2019-05-19T03:57:39.590Z,3.53
2019-05-19T04:00:10.485Z,2.40
2019-05-19T04:02:40.399Z,2.50
2019-05-19T04:05:11.103Z,4.10
2019-05-19T04:07:41.015Z,1.70
2019-05-19T04:10:11.809Z,1.50
2019-05-19T04:12:41.962Z,2.73
2019-05-19T04:15:12.923Z,2.70
2019-05-19T04:17:43.224Z,3.93
2019-05-19T04:20:13.718Z,2.93
2019-05-19T04:22:43.660Z,1.60
2019-05-19T04:25:14.045Z,2.87
2019-05-19T04:27:43.957Z,2.30
2019-05-19T04:30:14.269Z,2.37
2019-05-19T04:32:44.181Z,3.90
2019-05-19T04:35:14.584Z,2.10
2019-05-19T04:37:44.601Z,2.57
2019-05-19T04:40:15.191Z,3.50
2019-05-19T04:42:45.114Z,2.10
2019-05-19T04:45:15.125Z,4.50
2019-05-19T04:47:45.042Z,3.43
2019-05-19T04:50:15.245Z,3.23
2019-05-19T04:52:45.157Z,2.43
2019-05-19T04:55:15.168Z,1.80
2019-05-19T04:57:45.082Z,1.80
2019-05-19T05:00:15.626Z,6.83
2019-05-19T05:02:45.597Z,2.67
2019-05-19T05:05:16.101Z,1.60
2019-05-19T05:07:46.015Z,2.17
2019-05-19T05:10:16.535Z,5.00
2019-05-19T05:12:46.532Z,3.00
2019-05-19T05:15:17.030Z,1.93
2019-05-19T05:17:47.045Z,1.70
2019-05-19T05:20:17.943Z,1.70
2019-05-19T05:22:47.956Z,3.13
2019-05-19T05:25:18.357Z,1.90
2019-05-19T05:27:48.273Z,1.67
2019-05-19T05:30:18.577Z,1.60
2019-05-19T05:32:48.593Z,3.53
2019-05-19T05:35:18.603Z,2.00
2019-05-19T05:37:48.810Z,2.20
2019-05-19T05:40:19.121Z,1.70
2019-05-19T05:42:49.029Z,2.10
2019-05-19T05:45:18.943Z,2.13
2019-05-19T05:47:48.859Z,3.27
2019-05-19T05:50:18.882Z,2.23
2019-05-19T05:52:48.787Z,2.63
2019-05-19T05:55:18.997Z,2.10
2019-05-19T05:57:48.904Z,1.97
2019-05-19T06:00:19.603Z,3.23
2019-05-19T06:02:49.517Z,2.83
2019-05-19T06:05:19.528Z,2.87
2019-05-19T06:07:49.580Z,2.63
2019-05-19T06:10:19.848Z,2.30
2019-05-19T06:12:49.761Z,3.43
2019-05-19T06:15:19.675Z,3.43
2019-05-19T06:17:49.601Z,3.67
2019-05-19T06:20:19.501Z,4.60
2019-05-19T06:22:56.524Z,4.70
2019-05-19T06:25:21.051Z,4.47
2019-05-19T06:27:51.209Z,4.07
2019-05-19T06:30:21.613Z,2.47
2019-05-19T06:32:56.147Z,3.23
2019-05-19T06:35:26.062Z,2.80
2019-05-19T06:37:56.564Z,3.50
2019-05-19T06:40:26.709Z,4.97
2019-05-19T06:42:56.651Z,3.67
2019-05-19T06:45:26.813Z,6.33
2019-05-19T06:47:56.711Z,2.63
2019-05-19T06:50:26.622Z,3.17
2019-05-19T06:53:12.783Z,4.07
2019-05-19T06:55:28.648Z,3.47
2019-05-19T06:57:58.723Z,4.50
2019-05-19T07:00:28.930Z,3.43
2019-05-19T07:02:59.041Z,4.97
2019-05-19T07:05:28.856Z,3.37
2019-05-19T07:07:59.064Z,3.50
2019-05-19T07:10:28.977Z,3.23
2019-05-19T07:12:58.892Z,2.70
2019-05-19T07:15:28.867Z,5.07
2019-05-19T07:17:59.112Z,3.60
2019-05-19T07:20:29.027Z,4.47
2019-05-19T07:22:58.943Z,6.57
2019-05-19T07:25:28.851Z,4.83
2019-05-19T07:27:58.765Z,5.47
2019-05-19T07:30:28.775Z,4.30
2019-05-19T07:32:58.788Z,4.87
2019-05-19T07:35:28.700Z,3.87
2019-05-19T07:37:58.615Z,4.23
2019-05-19T07:40:28.528Z,4.20
2019-05-19T07:42:58.441Z,5.73
2019-05-19T07:45:28.649Z,4.33
2019-05-19T07:47:58.760Z,3.60
2019-05-19T07:50:28.675Z,4.20
2019-05-19T07:52:58.784Z,4.10
2019-05-19T07:55:29.003Z,4.27
2019-05-19T07:57:58.909Z,4.67
2019-05-19T08:00:29.087Z,4.17
2019-05-19T08:02:59.717Z,3.77
2019-05-19T08:05:29.827Z,3.70
2019-05-19T08:07:59.741Z,4.73
2019-05-19T08:10:29.564Z,3.17
2019-05-19T08:12:59.466Z,2.77
2019-05-19T08:15:29.381Z,3.33
2019-05-19T08:17:59.294Z,4.20
2019-05-19T08:20:29.329Z,4.67
2019-05-19T08:22:59.221Z,5.90
2019-05-19T08:25:29.020Z,4.53
2019-05-19T08:28:07.722Z,3.73
2019-05-19T08:30:30.679Z,5.73
2019-05-19T08:33:00.840Z,5.97
2019-05-19T08:35:31.048Z,4.10
2019-05-19T08:38:01.059Z,5.50
2019-05-19T08:40:30.984Z,3.93
2019-05-19T08:43:00.888Z,6.13
2019-05-19T08:45:30.901Z,4.23
2019-05-19T08:48:00.813Z,4.67
2019-05-19T08:50:30.857Z,3.90
2019-05-19T08:53:01.132Z,3.67
2019-05-19T08:55:31.242Z,5.67
2019-05-19T08:58:01.494Z,4.43
2019-05-19T09:00:36.106Z,5.30
2019-05-19T09:03:03.420Z,6.03
2019-05-19T09:05:33.940Z,4.10
2019-05-19T09:08:03.963Z,5.97
2019-05-19T09:10:34.062Z,4.77
2019-05-19T09:13:03.977Z,4.47
2019-05-19T09:15:34.090Z,4.77
2019-05-19T09:18:04.000Z,5.10
2019-05-19T09:20:34.014Z,5.67
2019-05-19T09:23:04.030Z,12.27
2019-05-19T09:25:34.136Z,14.63
2019-05-19T09:28:04.247Z,6.90
2019-05-19T09:30:34.156Z,9.27
2019-05-19T09:33:04.179Z,7.00
2019-05-19T09:35:34.180Z,3.33
2019-05-19T09:38:03.976Z,6.50
2019-05-19T09:40:33.908Z,3.80
2019-05-19T09:43:03.985Z,3.73
2019-05-19T09:45:34.030Z,6.07
2019-05-19T09:48:03.948Z,8.90
2019-05-19T09:50:33.858Z,5.67
2019-05-19T09:53:03.826Z,3.43
2019-05-19T09:55:34.175Z,4.27
2019-05-19T09:58:04.093Z,14.80
2019-05-19T10:00:34.399Z,5.53
2019-05-19T10:03:04.368Z,3.60
2019-05-19T10:05:34.322Z,11.53
2019-05-19T10:08:04.241Z,8.00
2019-05-19T10:10:57.521Z,13.57
2019-05-19T10:13:27.556Z,4.80
2019-05-19T10:15:57.469Z,5.10
2019-05-19T10:18:27.390Z,4.07
2019-05-19T10:20:57.397Z,3.40
2019-05-19T10:23:27.408Z,4.23
2019-05-19T10:25:57.320Z,3.30
2019-05-19T10:28:27.430Z,4.17
2019-05-19T10:30:57.345Z,3.53
2019-05-19T10:33:27.355Z,5.33
2019-05-19T10:35:57.269Z,4.23
2019-05-19T10:38:27.182Z,4.50
2019-05-19T10:40:57.101Z,4.40
2019-05-19T10:43:27.008Z,3.63
2019-05-19T10:46:03.215Z,2.80
2019-05-19T10:48:33.325Z,6.90
2019-05-19T10:51:03.238Z,4.33
2019-05-19T10:53:33.155Z,4.10
2019-05-19T10:56:03.261Z,6.20
2019-05-19T10:58:33.278Z,3.50
2019-05-19T11:01:03.186Z,3.87
2019-05-19T11:03:33.110Z,4.27
2019-05-19T11:06:03.195Z,4.53
2019-05-19T11:08:33.325Z,5.30
2019-05-19T11:11:03.529Z,5.73
2019-05-19T11:13:33.445Z,3.50
2019-05-19T11:16:03.364Z,5.70
2019-05-19T11:18:33.365Z,3.47
2019-05-19T11:21:03.878Z,4.63
2019-05-19T11:23:35.668Z,4.53
2019-05-19T11:26:05.962Z,3.70
2019-05-19T11:28:36.265Z,3.23
2019-05-19T11:31:06.170Z,3.33
2019-05-19T11:33:36.092Z,3.83
2019-05-19T11:36:06.455Z,3.50
2019-05-19T11:38:36.614Z,5.20
2019-05-19T11:41:06.714Z,3.93
2019-05-19T11:43:36.726Z,4.63
2019-05-19T11:46:06.738Z,3.17
2019-05-19T11:48:36.946Z,3.97
2019-05-19T11:51:07.458Z,3.20
2019-05-19T11:53:37.405Z,3.70
2019-05-19T11:56:11.250Z,3.37
2019-05-19T11:58:39.346Z,3.10
2019-05-19T12:01:09.823Z,4.20
2019-05-19T12:03:40.003Z,3.83
2019-05-19T12:06:10.548Z,3.03
2019-05-19T12:08:40.486Z,5.47
2019-05-19T12:11:10.594Z,2.80
2019-05-19T12:13:40.506Z,4.63
2019-05-19T12:16:10.624Z,3.93
2019-05-19T12:18:40.534Z,4.73
2019-05-19T12:21:10.454Z,5.63
2019-05-19T12:23:40.453Z,4.33
2019-05-19T12:26:22.734Z,6.17
2019-05-19T12:28:42.448Z,2.67
2019-05-19T12:31:12.355Z,5.83
2019-05-19T12:33:51.495Z,4.57
2019-05-19T12:36:14.582Z,5.10
2019-05-19T12:38:44.552Z,2.67
2019-05-19T12:41:14.663Z,4.53
2019-05-19T12:43:45.088Z,4.30
2019-05-19T12:46:16.700Z,4.50
2019-05-19T12:48:46.874Z,3.97
2019-05-19T12:51:16.762Z,3.80
2019-05-19T12:53:46.802Z,4.50
2019-05-19T12:56:16.948Z,4.70
2019-05-19T12:58:47.338Z,4.23
2019-05-19T13:01:17.412Z,3.27
2019-05-19T13:03:47.520Z,4.70
2019-05-19T13:06:17.433Z,3.37
2019-05-19T13:08:47.530Z,3.63
2019-05-19T13:11:17.560Z,3.20
2019-05-19T13:13:47.468Z,5.43
2019-05-19T13:16:17.579Z,3.40
2019-05-19T13:18:47.491Z,3.53
2019-05-19T13:21:17.700Z,4.00
2019-05-19T13:23:47.710Z,3.57
2019-05-19T13:26:17.722Z,4.10
2019-05-19T13:28:47.640Z,4.53
2019-05-19T13:31:17.550Z,5.07
2019-05-19T13:33:47.464Z,5.77
2019-05-19T13:36:17.705Z,5.43
2019-05-19T13:38:48.273Z,3.70
2019-05-19T13:41:18.187Z,3.87
2019-05-19T13:43:48.087Z,4.47
2019-05-19T13:46:18.036Z,4.67
2019-05-19T13:48:48.317Z,5.00
2019-05-19T13:51:18.234Z,6.13
2019-05-19T13:53:48.313Z,4.93
2019-05-19T13:56:18.279Z,6.83
2019-05-19T13:58:48.266Z,5.17
2019-05-19T14:01:28.110Z,4.47
2019-05-19T14:03:52.267Z,5.67
2019-05-19T14:06:22.433Z,5.27
2019-05-19T14:08:52.837Z,6.27
2019-05-19T14:11:22.748Z,7.83
2019-05-19T14:13:52.665Z,6.23
2019-05-19T14:16:22.636Z,4.93
2019-05-19T14:18:52.588Z,5.50
2019-05-19T14:21:22.824Z,5.10
2019-05-19T14:23:52.708Z,4.53
2019-05-19T14:26:23.015Z,5.00
2019-05-19T14:28:52.936Z,3.83
2019-05-19T14:31:22.909Z,3.30
2019-05-19T14:33:53.347Z,3.87
2019-05-19T14:36:23.258Z,3.03
2019-05-19T14:39:05.390Z,3.40
2019-05-19T14:41:37.732Z,2.90
2019-05-19T14:44:07.749Z,4.07
2019-05-19T14:46:37.546Z,3.27
2019-05-19T14:49:07.570Z,2.80
2019-05-19T14:51:37.879Z,2.70
2019-05-19T14:54:07.987Z,3.27
2019-05-19T14:56:37.900Z,3.23
2019-05-19T14:59:08.010Z,2.70
2019-05-19T15:01:38.041Z,2.23
2019-05-19T15:04:07.935Z,2.20
2019-05-19T15:06:38.045Z,1.70
2019-05-19T15:09:08.059Z,2.07
2019-05-19T15:11:38.068Z,1.87
2019-05-19T15:14:07.987Z,2.50
2019-05-19T15:16:37.896Z,3.30
2019-05-19T15:19:07.809Z,3.00
2019-05-19T15:21:37.910Z,2.70
2019-05-19T15:24:08.523Z,3.37
2019-05-19T15:26:38.541Z,2.50
2019-05-19T15:29:08.444Z,3.47
2019-05-19T15:31:38.554Z,3.13
2019-05-19T15:34:08.347Z,4.20
2019-05-19T15:36:38.307Z,3.80
2019-05-19T15:39:08.663Z,6.37
2019-05-19T15:41:38.614Z,3.60
2019-05-19T15:44:09.646Z,3.33
2019-05-19T15:46:39.611Z,4.10
2019-05-19T15:49:10.017Z,3.97
2019-05-19T15:51:39.962Z,10.97
2019-05-19T15:54:09.937Z,5.23
2019-05-19T15:56:40.166Z,4.17
2019-05-19T15:59:10.487Z,4.40
2019-05-19T16:01:40.463Z,3.97
2019-05-19T16:04:10.674Z,3.70
2019-05-19T16:06:40.556Z,4.50
2019-05-19T16:09:10.414Z,4.33
2019-05-19T16:11:40.410Z,3.37
2019-05-19T16:14:10.221Z,6.03
2019-05-19T16:16:40.238Z,5.03
2019-05-19T16:19:10.150Z,4.47
2019-05-19T16:21:40.031Z,3.30
2019-05-19T16:24:10.182Z,7.07
2019-05-19T16:26:40.322Z,4.67
2019-05-19T16:29:10.295Z,4.40
2019-05-19T16:31:40.156Z,4.30
2019-05-19T16:34:10.319Z,5.43
2019-05-19T16:36:40.440Z,4.53
2019-05-19T16:39:10.641Z,4.73
2019-05-19T16:41:40.650Z,5.83
2019-05-19T16:44:10.995Z,4.90
2019-05-19T16:46:41.024Z,5.90
2019-05-19T16:49:10.978Z,5.73
2019-05-19T16:51:41.108Z,4.70
2019-05-19T16:54:13.133Z,5.30
2019-05-19T16:56:43.183Z,4.90
2019-05-19T16:59:13.097Z,5.67
2019-05-19T17:01:43.100Z,6.43
2019-05-19T17:04:13.012Z,5.57
2019-05-19T17:06:43.024Z,4.43
2019-05-19T17:09:12.939Z,5.87
2019-05-19T17:11:43.149Z,6.33
2019-05-19T17:14:13.063Z,4.63
2019-05-19T17:16:43.220Z,4.50
2019-05-19T17:19:13.379Z,4.80
2019-05-19T17:21:43.801Z,4.83
2019-05-19T17:24:14.138Z,6.10
2019-05-19T17:26:44.592Z,4.13
2019-05-19T17:29:14.958Z,3.43
2019-05-19T17:31:45.024Z,4.40
2019-05-19T17:34:14.921Z,3.67
2019-05-19T17:36:44.820Z,3.97
2019-05-19T17:39:14.751Z,4.80
2019-05-19T17:41:44.662Z,3.97
2019-05-19T17:44:14.805Z,4.77
2019-05-19T17:46:44.895Z,4.17
2019-05-19T17:49:14.808Z,4.77
2019-05-19T17:51:44.806Z,6.47
2019-05-19T17:54:14.922Z,6.53
2019-05-19T17:56:47.518Z,4.00
2019-05-19T17:59:18.673Z,5.30
2019-05-19T18:01:49.081Z,5.33
2019-05-19T18:04:19.401Z,4.87
2019-05-19T18:06:49.306Z,5.83
2019-05-19T18:09:19.506Z,6.93
2019-05-19T18:11:49.518Z,6.53
2019-05-19T18:14:19.326Z,7.87
2019-05-19T18:16:49.354Z,6.80
2019-05-19T18:19:19.570Z,5.53
2019-05-19T18:21:49.569Z,6.33
2019-05-19T18:24:19.872Z,7.20
2019-05-19T18:26:50.868Z,5.50
2019-05-19T18:29:30.930Z,5.77
2019-05-19T18:31:53.056Z,8.80
2019-05-19T18:34:22.965Z,9.67
2019-05-19T18:36:52.769Z,12.43
2019-05-19T18:39:24.046Z,8.93
2019-05-19T18:41:54.278Z,9.93
2019-05-19T18:44:24.831Z,4.93
2019-05-19T18:46:54.990Z,4.10
2019-05-19T18:49:25.023Z,8.40
2019-05-19T18:51:55.018Z,7.80
2019-05-19T18:54:24.927Z,5.40
2019-05-19T18:56:55.141Z,5.30
2019-05-19T18:59:25.048Z,7.00
2019-05-19T19:01:56.927Z,6.50
2019-05-19T19:04:27.143Z,5.93
2019-05-19T19:06:57.081Z,10.10
2019-05-19T19:09:27.159Z,7.83
2019-05-19T19:11:57.129Z,8.63
2019-05-19T19:14:27.800Z,7.53
2019-05-19T19:16:57.884Z,10.80
2019-05-19T19:19:27.688Z,11.43
2019-05-19T19:21:57.859Z,7.90
2019-05-19T19:24:27.917Z,8.97
2019-05-19T19:26:57.954Z,8.43
2019-05-19T19:29:28.211Z,9.70
2019-05-19T19:31:58.352Z,9.50
2019-05-19T19:34:28.264Z,8.73
2019-05-19T19:36:58.359Z,7.10
2019-05-19T19:39:28.382Z,6.20
2019-05-19T19:41:58.296Z,7.83
2019-05-19T19:44:28.502Z,6.50
2019-05-19T19:46:58.416Z,6.63
2019-05-19T19:49:28.216Z,6.73
2019-05-19T19:51:58.048Z,10.07
2019-05-19T19:54:28.254Z,7.23
2019-05-19T19:57:00.457Z,6.70
2019-05-19T19:59:29.947Z,7.27
2019-05-19T20:02:00.010Z,6.63
2019-05-19T20:04:30.318Z,6.50
2019-05-19T20:07:00.774Z,6.20
2019-05-19T20:09:30.962Z,7.40
2019-05-19T20:12:00.906Z,6.57
2019-05-19T20:14:30.902Z,8.27
2019-05-19T20:17:00.948Z,8.63
2019-05-19T20:19:31.066Z,7.07
2019-05-19T20:22:01.528Z,9.30
2019-05-19T20:24:31.537Z,8.83
2019-05-19T20:27:02.055Z,9.47
2019-05-19T20:29:31.957Z,8.40
2019-05-19T20:32:01.873Z,9.37
2019-05-19T20:34:32.180Z,8.97
2019-05-19T20:37:02.104Z,9.60
2019-05-19T20:39:32.410Z,9.60
2019-05-19T20:42:02.309Z,9.80
2019-05-19T20:44:32.227Z,9.20
2019-05-19T20:47:02.435Z,13.20
2019-05-19T20:49:32.439Z,9.93
2019-05-19T20:52:02.651Z,10.80
2019-05-19T20:54:32.562Z,10.30
2019-05-19T20:57:02.676Z,10.50
2019-05-19T20:59:32.532Z,9.73
2019-05-19T21:02:02.703Z,9.80
2019-05-19T21:04:32.905Z,9.63
2019-05-19T21:07:02.733Z,7.70
2019-05-19T21:09:32.844Z,9.03
2019-05-19T21:12:03.040Z,7.43
2019-05-19T21:14:33.145Z,10.43
2019-05-19T21:17:03.059Z,9.00
2019-05-19T21:19:33.173Z,8.33
2019-05-19T21:22:03.277Z,8.20
2019-05-19T21:24:33.486Z,9.73
2019-05-19T21:27:03.399Z,8.03
2019-05-19T21:29:33.409Z,8.33
2019-05-19T21:32:03.324Z,8.87
2019-05-19T21:34:33.237Z,9.57
2019-05-19T21:37:03.151Z,11.80
2019-05-19T21:39:33.261Z,9.93
2019-05-19T21:42:03.173Z,9.73
2019-05-19T21:44:33.090Z,10.37
2019-05-19T21:47:03.001Z,10.47
2019-05-19T21:49:33.110Z,10.50
2019-05-19T21:52:03.024Z,10.43
2019-05-19T21:54:33.529Z,10.30
2019-05-19T21:57:03.441Z,11.30
2019-05-19T21:59:33.357Z,13.37
2019-05-19T22:02:03.664Z,12.07
2019-05-19T22:04:33.574Z,10.83
2019-05-19T22:07:05.062Z,11.77
2019-05-19T22:09:35.374Z,14.43
2019-05-19T22:12:05.380Z,10.77
2019-05-19T22:14:35.294Z,12.87
2019-05-19T22:17:05.305Z,12.97
2019-05-19T22:19:35.220Z,13.70
2019-05-19T22:22:05.131Z,11.50
2019-05-19T22:24:35.045Z,12.70
2019-05-19T22:27:05.056Z,14.80
2019-05-19T22:29:34.970Z,13.60
2019-05-19T22:32:04.882Z,12.53
2019-05-19T22:34:34.796Z,13.37
2019-05-19T22:37:05.005Z,13.50
2019-05-19T22:39:35.217Z,13.27
2019-05-19T22:42:05.327Z,13.27
2019-05-19T22:44:35.336Z,12.57
2019-05-19T22:47:06.428Z,13.23
2019-05-19T22:49:36.445Z,15.50
2019-05-19T22:52:06.551Z,13.50
2019-05-19T22:54:36.564Z,13.57
2019-05-19T22:57:06.572Z,14.80
2019-05-19T22:59:36.671Z,16.77
2019-05-19T23:02:09.284Z,14.03
2019-05-19T23:04:38.478Z,15.77
2019-05-19T23:07:08.393Z,14.57
2019-05-19T23:09:38.501Z,13.70
2019-05-19T23:12:08.412Z,16.27
2019-05-19T23:14:38.366Z,15.37
2019-05-19T23:17:08.441Z,15.40
2019-05-19T23:19:38.545Z,16.43
2019-05-19T23:22:08.659Z,15.17
2019-05-19T23:24:38.573Z,15.63
2019-05-19T23:27:08.781Z,16.37
2019-05-19T23:29:38.691Z,18.67
2019-05-19T23:32:08.996Z,15.13
2019-05-19T23:34:38.965Z,14.57
2019-05-19T23:37:08.925Z,16.37
2019-05-19T23:39:38.934Z,16.87
2019-05-19T23:42:08.848Z,15.20
2019-05-19T23:44:38.762Z,15.80
2019-05-19T23:47:08.772Z,16.57
2019-05-19T23:49:38.784Z,16.30
2019-05-19T23:52:08.702Z,15.37
2019-05-19T23:54:38.611Z,19.10
2019-05-19T23:57:08.642Z,16.27
2019-05-19T23:59:38.536Z,16.63
